Terminal Aerodrome Forecast
Issued by NWS

Home | Current Version | Previous Version | Text Only | Print | Product List | Glossary On
Versions: 1 2 3 4 5 6 7 8 9 10 11 12 13 14 15 16 17 18 19 20 21 22 23 24 25 26 27 28 29 30
000
FTUS45 KGJT 222327
TAFRIL
TAF
KRIL 222327Z 2300/2324 26009KT P6SM VCTS SCT070CB BKN100
      TEMPO 2300/2302 VRB20G35KT -TSRA SCT060 BKN080CB
     FM230200 18005KT P6SM VCSH SCT080 OVC100
     FM230600 VRB03KT P6SM -SHRA OVC070
     FM231200 27010KT P6SM VCSH BKN070
     FM231900 26010KT P6SM VCTS SCT070CB BKN100=

USA.gov is the U.S. government's official web portal to all federal, state and local government web resources and services.